Round Mountain, Nevada
Current Conditions -  °F | °C
As of 3:56 PM on Friday 31 Oct 2014 (Local Time) from KTPH Reporting Station
Clear Clear  
Wind Chill: 63°   Ceiling: Unl
Heat Index: 63°   Visibility: 10mi
Dew Point: 23°   Wind: 22mph
Humidity: 22%   Direction: 180°S
Pressure: 29.85"   Gusts: 30mph
Location:  38.71°N, 117.07°W
Report Text: KTPH 312256Z AUTO 18019G26KT 10SM CLR 17/M05 A2985 RMK AO2 PK WND 18026/2248 SLP065 T01721050
Loading
Personal Weather Stations






























Interactive Weather Map
Tropical Storm Tracking
New forecast layout! Learn more

10-Day Weather Forecast

Advertisements
Track Severe Weather on mobile